sensor_id;sensor_type;location;lat;lon;timestamp;pressure;altitude;pressure_sealevel;temperature;humidity
68988;BME280;56038;46.080;11.116;2023-05-17T00:04:18;98424.53;;;18.06;36.41
68988;BME280;56038;46.080;11.116;2023-05-17T00:09:20;98438.31;;;18.10;36.00
68988;BME280;56038;46.080;11.116;2023-05-17T00:14:23;98439.00;;;18.12;35.70
68988;BME280;56038;46.080;11.116;2023-05-17T00:19:25;98439.41;;;18.07;35.94
68988;BME280;56038;46.080;11.116;2023-05-17T00:24:27;98442.19;;;18.06;35.83
68988;BME280;56038;46.080;11.116;2023-05-17T00:29:30;98436.34;;;18.02;35.46
68988;BME280;56038;46.080;11.116;2023-05-17T00:34:32;98430.91;;;18.04;35.89
68988;BME280;56038;46.080;11.116;2023-05-17T00:39:33;98435.03;;;17.96;36.02
68988;BME280;56038;46.080;11.116;2023-05-17T00:44:37;98440.19;;;17.98;35.25
68988;BME280;56038;46.080;11.116;2023-05-17T00:49:38;98435.72;;;17.99;35.57
68988;BME280;56038;46.080;11.116;2023-05-17T00:54:41;98429.75;;;17.96;35.56
68988;BME280;56038;46.080;11.116;2023-05-17T00:59:44;98435.16;;;17.95;35.26
68988;BME280;56038;46.080;11.116;2023-05-17T01:04:46;98442.66;;;17.90;35.67
68988;BME280;56038;46.080;11.116;2023-05-17T01:09:49;98429.59;;;17.98;35.23
68988;BME280;56038;46.080;11.116;2023-05-17T01:14:59;98433.50;;;17.94;33.99
68988;BME280;56038;46.080;11.116;2023-05-17T01:20:11;98431.69;;;17.94;34.43
68988;BME280;56038;46.080;11.116;2023-05-17T01:25:26;98457.41;;;17.92;34.09
68988;BME280;56038;46.080;11.116;2023-05-17T01:30:31;98463.25;;;17.96;34.21
68988;BME280;56038;46.080;11.116;2023-05-17T01:35:33;98454.97;;;18.01;33.52
68988;BME280;56038;46.080;11.116;2023-05-17T01:40:40;98461.91;;;18.02;33.82
68988;BME280;56038;46.080;11.116;2023-05-17T01:45:55;98462.16;;;17.99;33.30
68988;BME280;56038;46.080;11.116;2023-05-17T01:50:59;98466.50;;;18.00;33.76
68988;BME280;56038;46.080;11.116;2023-05-17T01:56:03;98464.94;;;17.97;33.63
68988;BME280;56038;46.080;11.116;2023-05-17T02:01:09;98468.31;;;17.99;33.20
68988;BME280;56038;46.080;11.116;2023-05-17T02:06:21;98470.09;;;17.99;32.98
68988;BME280;56038;46.080;11.116;2023-05-17T02:11:31;98467.28;;;17.90;33.15
68988;BME280;56038;46.080;11.116;2023-05-17T02:16:34;98463.78;;;17.90;34.06
68988;BME280;56038;46.080;11.116;2023-05-17T02:21:36;98468.25;;;17.89;33.67
68988;BME280;56038;46.080;11.116;2023-05-17T02:26:38;98453.03;;;17.82;33.96
68988;BME280;56038;46.080;11.116;2023-05-17T02:31:43;98463.84;;;17.79;34.02
68988;BME280;56038;46.080;11.116;2023-05-17T02:36:45;98476.34;;;17.77;34.12
68988;BME280;56038;46.080;11.116;2023-05-17T02:41:47;98472.03;;;17.76;34.05
68988;BME280;56038;46.080;11.116;2023-05-17T02:46:50;98499.81;;;17.70;33.97
68988;BME280;56038;46.080;11.116;2023-05-17T02:51:52;98481.06;;;17.73;34.14
68988;BME280;56038;46.080;11.116;2023-05-17T02:56:54;98490.78;;;17.73;34.07
68988;BME280;56038;46.080;11.116;2023-05-17T03:01:57;98498.84;;;17.71;34.35
68988;BME280;56038;46.080;11.116;2023-05-17T03:06:59;98497.31;;;17.69;33.62
68988;BME280;56038;46.080;11.116;2023-05-17T03:12:01;98495.59;;;17.67;33.90
68988;BME280;56038;46.080;11.116;2023-05-17T03:17:04;98504.25;;;17.70;33.70
68988;BME280;56038;46.080;11.116;2023-05-17T03:22:06;98519.00;;;17.72;33.16
68988;BME280;56038;46.080;11.116;2023-05-17T03:27:08;98527.19;;;17.69;33.76
68988;BME280;56038;46.080;11.116;2023-05-17T03:32:11;98524.56;;;17.69;33.57
68988;BME280;56038;46.080;11.116;2023-05-17T03:37:13;98527.28;;;17.67;32.98
68988;BME280;56038;46.080;11.116;2023-05-17T03:42:14;98521.91;;;17.69;33.01
68988;BME280;56038;46.080;11.116;2023-05-17T03:47:18;98549.47;;;17.65;33.54
68988;BME280;56038;46.080;11.116;2023-05-17T03:52:22;98547.81;;;17.64;32.45
68988;BME280;56038;46.080;11.116;2023-05-17T03:57:24;98562.69;;;17.65;33.31
68988;BME280;56038;46.080;11.116;2023-05-17T04:02:27;98562.81;;;17.63;32.94
68988;BME280;56038;46.080;11.116;2023-05-17T04:07:29;98568.22;;;17.62;32.69
68988;BME280;56038;46.080;11.116;2023-05-17T04:12:31;98585.75;;;17.63;33.00
68988;BME280;56038;46.080;11.116;2023-05-17T04:17:34;98574.84;;;17.56;32.87
68988;BME280;56038;46.080;11.116;2023-05-17T04:22:37;98568.34;;;17.60;33.03
68988;BME280;56038;46.080;11.116;2023-05-17T04:27:39;98572.81;;;17.60;32.76
68988;BME280;56038;46.080;11.116;2023-05-17T04:32:42;98583.38;;;17.60;32.73
68988;BME280;56038;46.080;11.116;2023-05-17T04:37:44;98592.97;;;17.61;32.89
68988;BME280;56038;46.080;11.116;2023-05-17T04:42:46;98604.63;;;17.58;32.78
68988;BME280;56038;46.080;11.116;2023-05-17T04:47:50;98613.25;;;17.60;32.25
68988;BME280;56038;46.080;11.116;2023-05-17T04:52:52;98609.78;;;17.60;32.37
68988;BME280;56038;46.080;11.116;2023-05-17T04:57:53;98628.97;;;17.62;32.37
68988;BME280;56038;46.080;11.116;2023-05-17T05:02:57;98626.31;;;17.62;32.01
68988;BME280;56038;46.080;11.116;2023-05-17T05:07:58;98633.41;;;17.61;32.25
68988;BME280;56038;46.080;11.116;2023-05-17T05:13:00;98657.19;;;17.61;32.51
68988;BME280;56038;46.080;11.116;2023-05-17T05:18:03;98655.75;;;17.57;31.96
68988;BME280;56038;46.080;11.116;2023-05-17T05:23:05;98653.13;;;17.57;32.13
68988;BME280;56038;46.080;11.116;2023-05-17T05:28:07;98655.88;;;17.56;32.42
68988;BME280;56038;46.080;11.116;2023-05-17T05:33:10;98659.38;;;17.56;31.78
68988;BME280;56038;46.080;11.116;2023-05-17T05:38:12;98681.66;;;17.63;31.62
68988;BME280;56038;46.080;11.116;2023-05-17T05:43:14;98679.59;;;17.67;31.68
68988;BME280;56038;46.080;11.116;2023-05-17T05:48:17;98694.63;;;17.66;32.15
68988;BME280;56038;46.080;11.116;2023-05-17T05:53:22;98694.31;;;17.71;31.64
68988;BME280;56038;46.080;11.116;2023-05-17T05:58:24;98699.09;;;17.77;31.68
68988;BME280;56038;46.080;11.116;2023-05-17T06:03:27;98714.22;;;17.75;31.49
68988;BME280;56038;46.080;11.116;2023-05-17T06:08:29;98716.88;;;17.75;31.90
68988;BME280;56038;46.080;11.116;2023-05-17T06:13:31;98713.13;;;17.78;31.41
68988;BME280;56038;46.080;11.116;2023-05-17T06:18:34;98721.91;;;17.78;31.66
68988;BME280;56038;46.080;11.116;2023-05-17T06:23:36;98731.88;;;17.86;31.93
68988;BME280;56038;46.080;11.116;2023-05-17T06:28:37;98731.09;;;17.95;31.54
68988;BME280;56038;46.080;11.116;2023-05-17T06:33:41;98731.09;;;18.06;31.70
68988;BME280;56038;46.080;11.116;2023-05-17T06:38:43;98737.94;;;18.09;31.42
68988;BME280;56038;46.080;11.116;2023-05-17T06:43:45;98741.28;;;18.11;31.35
68988;BME280;56038;46.080;11.116;2023-05-17T06:48:48;98746.44;;;18.12;31.43
68988;BME280;56038;46.080;11.116;2023-05-17T06:53:50;98752.81;;;18.21;31.21
68988;BME280;56038;46.080;11.116;2023-05-17T06:58:52;98761.19;;;18.26;30.87
68988;BME280;56038;46.080;11.116;2023-05-17T07:03:55;98760.84;;;18.31;30.86
68988;BME280;56038;46.080;11.116;2023-05-17T07:08:57;98777.41;;;18.33;30.80
68988;BME280;56038;46.080;11.116;2023-05-17T07:13:58;98782.78;;;18.42;31.08
68988;BME280;56038;46.080;11.116;2023-05-17T07:19:02;98780.13;;;18.42;29.97
68988;BME280;56038;46.080;11.116;2023-05-17T07:24:04;98792.16;;;18.46;30.93
68988;BME280;56038;46.080;11.116;2023-05-17T07:29:06;98799.84;;;18.49;30.67
68988;BME280;56038;46.080;11.116;2023-05-17T07:34:09;98796.81;;;18.54;30.34
68988;BME280;56038;46.080;11.116;2023-05-17T07:39:11;98810.59;;;18.58;30.70
68988;BME280;56038;46.080;11.116;2023-05-17T07:44:13;98804.75;;;18.65;30.91
68988;BME280;56038;46.080;11.116;2023-05-17T07:49:16;98805.75;;;18.74;30.86
68988;BME280;56038;46.080;11.116;2023-05-17T07:54:24;98820.31;;;18.79;30.30
68988;BME280;56038;46.080;11.116;2023-05-17T07:59:27;98818.25;;;18.83;30.97
68988;BME280;56038;46.080;11.116;2023-05-17T08:04:30;98810.19;;;18.84;30.36
68988;BME280;56038;46.080;11.116;2023-05-17T08:09:32;98818.56;;;18.90;30.87
68988;BME280;56038;46.080;11.116;2023-05-17T08:14:34;98811.22;;;18.93;30.61
68988;BME280;56038;46.080;11.116;2023-05-17T08:19:37;98828.78;;;18.94;31.79
68988;BME280;56038;46.080;11.116;2023-05-17T08:24:39;98821.91;;;18.92;32.47
68988;BME280;56038;46.080;11.116;2023-05-17T08:29:41;98816.06;;;18.88;33.78
68988;BME280;56038;46.080;11.116;2023-05-17T08:34:44;98821.25;;;19.10;33.76
68988;BME280;56038;46.080;11.116;2023-05-17T08:39:46;98826.53;;;19.31;33.71
68988;BME280;56038;46.080;11.116;2023-05-17T08:44:49;98836.13;;;19.53;33.82
68988;BME280;56038;46.080;11.116;2023-05-17T08:49:54;98833.88;;;19.69;33.70
68988;BME280;56038;46.080;11.116;2023-05-17T08:54:57;98827.44;;;19.93;33.41
68988;BME280;56038;46.080;11.116;2023-05-17T09:00:00;98833.78;;;20.11;33.63
68988;BME280;56038;46.080;11.116;2023-05-17T09:05:06;98825.59;;;20.33;33.25
68988;BME280;56038;46.080;11.116;2023-05-17T09:10:09;98842.28;;;20.55;33.07
68988;BME280;56038;46.080;11.116;2023-05-17T09:15:14;98839.66;;;20.84;32.93
68988;BME280;56038;46.080;11.116;2023-05-17T09:20:22;98835.88;;;21.06;33.10
68988;BME280;56038;46.080;11.116;2023-05-17T09:25:27;98836.44;;;21.19;32.98
68988;BME280;56038;46.080;11.116;2023-05-17T09:30:30;98841.88;;;21.17;31.97
68988;BME280;56038;46.080;11.116;2023-05-17T09:35:35;98844.97;;;21.32;32.60
68988;BME280;56038;46.080;11.116;2023-05-17T09:40:38;98845.38;;;21.37;32.98
68988;BME280;56038;46.080;11.116;2023-05-17T09:45:40;98845.09;;;21.40;33.42
68988;BME280;56038;46.080;11.116;2023-05-17T09:50:44;98849.16;;;21.35;33.06
68988;BME280;56038;46.080;11.116;2023-05-17T09:55:47;98852.22;;;21.30;32.79
68988;BME280;56038;46.080;11.116;2023-05-17T10:00:51;98847.88;;;21.10;32.17
68988;BME280;56038;46.080;11.116;2023-05-17T10:06:02;98849.28;;;21.14;31.85
68988;BME280;56038;46.080;11.116;2023-05-17T10:11:15;98851.25;;;21.12;31.39
68988;BME280;56038;46.080;11.116;2023-05-17T10:16:19;98848.03;;;21.08;31.29
68988;BME280;56038;46.080;11.116;2023-05-17T10:21:24;98847.88;;;21.10;31.38
68988;BME280;56038;46.080;11.116;2023-05-17T10:26:28;98844.53;;;21.27;31.18
68988;BME280;56038;46.080;11.116;2023-05-17T10:31:31;98845.25;;;21.39;30.78
68988;BME280;56038;46.080;11.116;2023-05-17T10:36:36;98839.19;;;21.56;30.51
68988;BME280;56038;46.080;11.116;2023-05-17T10:41:42;98843.56;;;21.85;30.01
68988;BME280;56038;46.080;11.116;2023-05-17T10:46:50;98830.75;;;22.07;28.13
68988;BME280;56038;46.080;11.116;2023-05-17T10:51:55;98827.19;;;22.26;28.47
68988;BME280;56038;46.080;11.116;2023-05-17T10:57:01;98827.19;;;22.26;28.25
68988;BME280;56038;46.080;11.116;2023-05-17T11:02:06;98820.03;;;22.27;28.76
68988;BME280;56038;46.080;11.116;2023-05-17T11:07:21;98826.75;;;22.49;26.19
68988;BME280;56038;46.080;11.116;2023-05-17T11:12:29;98809.66;;;22.87;26.83
68988;BME280;56038;46.080;11.116;2023-05-17T11:17:46;98811.38;;;23.14;26.45
68988;BME280;56038;46.080;11.116;2023-05-17T11:22:56;98808.13;;;23.46;26.68
68988;BME280;56038;46.080;11.116;2023-05-17T11:27:58;98806.19;;;23.56;27.06
68988;BME280;56038;46.080;11.116;2023-05-17T11:33:02;98811.66;;;23.72;27.28
68988;BME280;56038;46.080;11.116;2023-05-17T11:38:15;98812.13;;;23.50;26.46
68988;BME280;56038;46.080;11.116;2023-05-17T11:43:19;98815.09;;;23.39;26.01
68988;BME280;56038;46.080;11.116;2023-05-17T11:48:28;98814.13;;;23.48;26.46
68988;BME280;56038;46.080;11.116;2023-05-17T11:53:32;98831.44;;;23.44;26.37
68988;BME280;56038;46.080;11.116;2023-05-17T11:58:34;98818.16;;;23.26;26.71
68988;BME280;56038;46.080;11.116;2023-05-17T12:03:36;98813.28;;;23.47;26.70
68988;BME280;56038;46.080;11.116;2023-05-17T12:08:42;98826.91;;;23.62;25.66
68988;BME280;56038;46.080;11.116;2023-05-17T12:13:45;98835.28;;;23.67;26.71
68988;BME280;56038;46.080;11.116;2023-05-17T12:18:49;98838.94;;;23.48;24.92
68988;BME280;56038;46.080;11.116;2023-05-17T12:23:53;98834.50;;;23.31;25.80
68988;BME280;56038;46.080;11.116;2023-05-17T12:28:56;98847.91;;;23.39;26.40
68988;BME280;56038;46.080;11.116;2023-05-17T12:33:59;98848.41;;;23.43;25.82
68988;BME280;56038;46.080;11.116;2023-05-17T12:39:03;98853.75;;;23.43;26.20
68988;BME280;56038;46.080;11.116;2023-05-17T12:44:10;98856.63;;;23.23;26.48
68988;BME280;56038;46.080;11.116;2023-05-17T12:49:15;98858.50;;;23.31;25.88
68988;BME280;56038;46.080;11.116;2023-05-17T12:54:26;98870.47;;;23.09;25.25
68988;BME280;56038;46.080;11.116;2023-05-17T12:59:28;98861.66;;;22.91;26.42
68988;BME280;56038;46.080;11.116;2023-05-17T13:04:31;98870.25;;;22.85;26.64
68988;BME280;56038;46.080;11.116;2023-05-17T13:09:45;98869.88;;;22.70;26.17
68988;BME280;56038;46.080;11.116;2023-05-17T13:14:50;98878.44;;;22.74;26.61
68988;BME280;56038;46.080;11.116;2023-05-17T13:19:52;98880.38;;;22.71;26.71
68988;BME280;56038;46.080;11.116;2023-05-17T13:24:57;98877.03;;;22.69;26.72
68988;BME280;56038;46.080;11.116;2023-05-17T13:29:59;98879.84;;;22.68;26.34
68988;BME280;56038;46.080;11.116;2023-05-17T13:35:01;98877.78;;;22.44;27.07
68988;BME280;56038;46.080;11.116;2023-05-17T13:40:05;98887.53;;;22.26;26.84
68988;BME280;56038;46.080;11.116;2023-05-17T13:45:08;98888.31;;;21.99;25.97
68988;BME280;56038;46.080;11.116;2023-05-17T13:50:11;98902.31;;;21.91;25.98
68988;BME280;56038;46.080;11.116;2023-05-17T13:55:17;98905.56;;;21.95;27.08
68988;BME280;56038;46.080;11.116;2023-05-17T14:00:20;98906.22;;;22.06;27.06
68988;BME280;56038;46.080;11.116;2023-05-17T14:05:25;98911.03;;;21.83;27.14
68988;BME280;56038;46.080;11.116;2023-05-17T14:10:35;98906.84;;;21.81;27.25
68988;BME280;56038;46.080;11.116;2023-05-17T14:15:37;98909.59;;;21.89;27.08
68988;BME280;56038;46.080;11.116;2023-05-17T14:20:39;98921.13;;;21.80;27.33
68988;BME280;56038;46.080;11.116;2023-05-17T14:25:42;98923.88;;;21.88;26.96
68988;BME280;56038;46.080;11.116;2023-05-17T14:30:44;98931.56;;;21.91;27.06
68988;BME280;56038;46.080;11.116;2023-05-17T14:35:46;98936.50;;;21.86;27.35
68988;BME280;56038;46.080;11.116;2023-05-17T14:40:49;98941.94;;;21.85;27.45
68988;BME280;56038;46.080;11.116;2023-05-17T14:45:51;98943.25;;;21.61;27.62
68988;BME280;56038;46.080;11.116;2023-05-17T14:50:53;98955.56;;;21.62;27.93
68988;BME280;56038;46.080;11.116;2023-05-17T14:55:57;98952.19;;;21.70;27.99
68988;BME280;56038;46.080;11.116;2023-05-17T15:00:59;98955.00;;;21.78;27.98
68988;BME280;56038;46.080;11.116;2023-05-17T15:06:04;98952.19;;;21.70;27.73
68988;BME280;56038;46.080;11.116;2023-05-17T15:11:08;98966.88;;;21.74;27.92
68988;BME280;56038;46.080;11.116;2023-05-17T15:16:09;98961.84;;;21.71;28.23
68988;BME280;56038;46.080;11.116;2023-05-17T15:21:12;98974.59;;;21.67;28.17
68988;BME280;56038;46.080;11.116;2023-05-17T15:26:18;98965.66;;;21.49;28.56
68988;BME280;56038;46.080;11.116;2023-05-17T15:31:20;98983.28;;;21.50;28.90
68988;BME280;56038;46.080;11.116;2023-05-17T15:36:23;98988.16;;;21.55;29.46
68988;BME280;56038;46.080;11.116;2023-05-17T15:41:29;99002.28;;;21.45;30.05
68988;BME280;56038;46.080;11.116;2023-05-17T15:46:31;98995.28;;;21.44;29.92
68988;BME280;56038;46.080;11.116;2023-05-17T15:51:33;98997.94;;;21.44;29.83
68988;BME280;56038;46.080;11.116;2023-05-17T15:56:36;99005.78;;;21.36;30.13
68988;BME280;56038;46.080;11.116;2023-05-17T16:01:39;99019.44;;;21.22;30.69
68988;BME280;56038;46.080;11.116;2023-05-17T16:06:45;99015.63;;;21.05;31.29
68988;BME280;56038;46.080;11.116;2023-05-17T16:11:48;99022.72;;;20.85;31.58
68988;BME280;56038;46.080;11.116;2023-05-17T16:16:50;99025.16;;;20.68;31.91
68988;BME280;56038;46.080;11.116;2023-05-17T16:21:52;99032.66;;;20.53;32.29
68988;BME280;56038;46.080;11.116;2023-05-17T16:26:55;99036.28;;;20.52;32.36
68988;BME280;56038;46.080;11.116;2023-05-17T16:31:58;99034.44;;;20.31;32.53
68988;BME280;56038;46.080;11.116;2023-05-17T16:37:00;99037.63;;;20.25;32.70
68988;BME280;56038;46.080;11.116;2023-05-17T16:42:05;99044.53;;;20.17;33.07
68988;BME280;56038;46.080;11.116;2023-05-17T16:47:07;99051.97;;;20.02;33.25
68988;BME280;56038;46.080;11.116;2023-05-17T16:52:08;99051.84;;;19.83;33.39
68988;BME280;56038;46.080;11.116;2023-05-17T16:57:13;99055.28;;;19.73;33.42
68988;BME280;56038;46.080;11.116;2023-05-17T17:02:14;99063.97;;;19.64;33.66
68988;BME280;56038;46.080;11.116;2023-05-17T17:07:17;99074.84;;;19.61;33.69
68988;BME280;56038;46.080;11.116;2023-05-17T17:12:20;99069.41;;;19.52;34.10
68988;BME280;56038;46.080;11.116;2023-05-17T17:17:22;99075.09;;;19.47;34.17
68988;BME280;56038;46.080;11.116;2023-05-17T17:22:23;99074.63;;;19.42;34.14
68988;BME280;56038;46.080;11.116;2023-05-17T17:27:26;99085.09;;;19.32;34.29
68988;BME280;56038;46.080;11.116;2023-05-17T17:32:28;99079.22;;;19.29;34.41
68988;BME280;56038;46.080;11.116;2023-05-17T17:37:30;99080.66;;;19.22;34.59
68988;BME280;56038;46.080;11.116;2023-05-17T17:42:33;99088.03;;;19.18;34.27
68988;BME280;56038;46.080;11.116;2023-05-17T17:47:35;99093.56;;;19.15;34.63
68988;BME280;56038;46.080;11.116;2023-05-17T17:52:37;99089.84;;;19.06;34.66
68988;BME280;56038;46.080;11.116;2023-05-17T17:57:41;99093.69;;;19.02;34.66
68988;BME280;56038;46.080;11.116;2023-05-17T18:02:42;99098.41;;;18.99;34.63
68988;BME280;56038;46.080;11.116;2023-05-17T18:07:44;99105.88;;;18.94;34.63
68988;BME280;56038;46.080;11.116;2023-05-17T18:12:47;99119.44;;;18.89;34.64
68988;BME280;56038;46.080;11.116;2023-05-17T18:17:49;99113.09;;;18.80;34.51
68988;BME280;56038;46.080;11.116;2023-05-17T18:22:52;99113.41;;;18.76;34.07
68988;BME280;56038;46.080;11.116;2023-05-17T18:27:55;99113.19;;;18.68;34.04
68988;BME280;56038;46.080;11.116;2023-05-17T18:32:57;99120.69;;;18.61;34.16
68988;BME280;56038;46.080;11.116;2023-05-17T18:37:59;99129.00;;;18.56;34.28
68988;BME280;56038;46.080;11.116;2023-05-17T18:43:02;99137.31;;;18.52;34.05
68988;BME280;56038;46.080;11.116;2023-05-17T18:48:04;99137.88;;;18.44;34.16
68988;BME280;56038;46.080;11.116;2023-05-17T18:53:06;99142.69;;;18.39;33.81
68988;BME280;56038;46.080;11.116;2023-05-17T18:58:09;99154.22;;;18.38;33.87
68988;BME280;56038;46.080;11.116;2023-05-17T19:03:11;99151.41;;;18.29;33.73
68988;BME280;56038;46.080;11.116;2023-05-17T19:08:13;99164.97;;;18.24;34.18
68988;BME280;56038;46.080;11.116;2023-05-17T19:13:17;99169.25;;;18.14;34.80
68988;BME280;56038;46.080;11.116;2023-05-17T19:18:19;99170.06;;;18.03;34.93
68988;BME280;56038;46.080;11.116;2023-05-17T19:23:22;99175.41;;;17.90;35.56
68988;BME280;56038;46.080;11.116;2023-05-17T19:28:25;99184.22;;;17.78;36.34
68988;BME280;56038;46.080;11.116;2023-05-17T19:33:28;99190.94;;;17.71;36.32
68988;BME280;56038;46.080;11.116;2023-05-17T19:38:31;99194.19;;;17.62;36.36
68988;BME280;56038;46.080;11.116;2023-05-17T19:43:35;99205.22;;;17.69;35.61
68988;BME280;56038;46.080;11.116;2023-05-17T19:48:39;99198.41;;;17.64;35.86
68988;BME280;56038;46.080;11.116;2023-05-17T19:53:41;99203.06;;;17.61;36.18
68988;BME280;56038;46.080;11.116;2023-05-17T19:58:45;99217.03;;;17.50;36.63
68988;BME280;56038;46.080;11.116;2023-05-17T20:03:48;99222.53;;;17.47;36.20
68988;BME280;56038;46.080;11.116;2023-05-17T20:08:51;99227.69;;;17.49;36.46
68988;BME280;56038;46.080;11.116;2023-05-17T20:13:55;99234.66;;;17.50;36.57
68988;BME280;56038;46.080;11.116;2023-05-17T20:18:58;99239.00;;;17.51;36.65
68988;BME280;56038;46.080;11.116;2023-05-17T20:24:03;99254.13;;;17.49;36.97
68988;BME280;56038;46.080;11.116;2023-05-17T20:29:07;99250.00;;;17.45;36.30
68988;BME280;56038;46.080;11.116;2023-05-17T20:34:14;99244.50;;;17.48;36.02
68988;BME280;56038;46.080;11.116;2023-05-17T20:39:20;99247.69;;;17.53;34.97
68988;BME280;56038;46.080;11.116;2023-05-17T20:44:24;99271.53;;;17.51;35.64
68988;BME280;56038;46.080;11.116;2023-05-17T20:49:27;99258.88;;;17.44;35.68
68988;BME280;56038;46.080;11.116;2023-05-17T20:54:29;99260.91;;;17.40;36.01
68988;BME280;56038;46.080;11.116;2023-05-17T20:59:32;99270.91;;;17.35;35.89
68988;BME280;56038;46.080;11.116;2023-05-17T21:04:34;99281.06;;;17.28;36.25
68988;BME280;56038;46.080;11.116;2023-05-17T21:09:38;99277.47;;;17.29;35.15
68988;BME280;56038;46.080;11.116;2023-05-17T21:14:41;99287.81;;;17.32;35.07
68988;BME280;56038;46.080;11.116;2023-05-17T21:19:43;99288.25;;;17.26;35.66
68988;BME280;56038;46.080;11.116;2023-05-17T21:24:44;99289.94;;;17.15;35.96
68988;BME280;56038;46.080;11.116;2023-05-17T21:29:48;99299.13;;;17.09;36.44
68988;BME280;56038;46.080;11.116;2023-05-17T21:34:50;99308.59;;;16.99;36.56
68988;BME280;56038;46.080;11.116;2023-05-17T21:39:52;99312.41;;;16.95;36.98
68988;BME280;56038;46.080;11.116;2023-05-17T21:44:55;99315.47;;;16.89;37.04
68988;BME280;56038;46.080;11.116;2023-05-17T21:49:57;99319.44;;;16.82;37.22
68988;BME280;56038;46.080;11.116;2023-05-17T21:54:59;99328.63;;;16.76;37.52
68988;BME280;56038;46.080;11.116;2023-05-17T22:00:03;99325.25;;;16.74;37.58
68988;BME280;56038;46.080;11.116;2023-05-17T22:05:07;99333.72;;;16.65;37.24
68988;BME280;56038;46.080;11.116;2023-05-17T22:10:09;99341.72;;;16.63;37.23
68988;BME280;56038;46.080;11.116;2023-05-17T22:15:13;99350.78;;;16.59;37.33
68988;BME280;56038;46.080;11.116;2023-05-17T22:20:15;99349.00;;;16.60;37.26
68988;BME280;56038;46.080;11.116;2023-05-17T22:25:18;99353.44;;;16.59;37.05
68988;BME280;56038;46.080;11.116;2023-05-17T22:30:22;99360.88;;;16.53;37.36
68988;BME280;56038;46.080;11.116;2023-05-17T22:35:24;99367.84;;;16.54;36.95
68988;BME280;56038;46.080;11.116;2023-05-17T22:40:25;99370.38;;;16.55;36.69
68988;BME280;56038;46.080;11.116;2023-05-17T22:45:29;99359.72;;;16.57;36.64
68988;BME280;56038;46.080;11.116;2023-05-17T22:50:32;99377.75;;;16.50;37.18
68988;BME280;56038;46.080;11.116;2023-05-17T22:55:34;99371.28;;;16.41;37.01
68988;BME280;56038;46.080;11.116;2023-05-17T23:00:37;99376.25;;;16.46;36.57
68988;BME280;56038;46.080;11.116;2023-05-17T23:05:48;99366.28;;;16.37;37.55
68988;BME280;56038;46.080;11.116;2023-05-17T23:11:01;99372.59;;;16.34;37.06
68988;BME280;56038;46.080;11.116;2023-05-17T23:16:06;99373.66;;;16.32;37.06
68988;BME280;56038;46.080;11.116;2023-05-17T23:21:08;99359.25;;;16.23;37.32
68988;BME280;56038;46.080;11.116;2023-05-17T23:26:11;99368.31;;;16.19;37.61
68988;BME280;56038;46.080;11.116;2023-05-17T23:31:15;99376.72;;;16.11;37.88
68988;BME280;56038;46.080;11.116;2023-05-17T23:36:17;99382.34;;;16.05;38.20
68988;BME280;56038;46.080;11.116;2023-05-17T23:41:20;99380.00;;;16.01;38.11
68988;BME280;56038;46.080;11.116;2023-05-17T23:46:26;99378.41;;;15.98;38.26
68988;BME280;56038;46.080;11.116;2023-05-17T23:51:27;99387.16;;;15.99;38.31
68988;BME280;56038;46.080;11.116;2023-05-17T23:56:29;99384.72;;;15.96;38.13
